createdAt,value
2019-02-11T00:01:34.809Z,12.97
2019-02-11T00:04:06.642Z,12.97
2019-02-11T00:06:38.154Z,12.86
2019-02-11T00:09:10.377Z,12.87
2019-02-11T00:11:41.667Z,12.87
2019-02-11T00:14:13.190Z,12.73
2019-02-11T00:16:44.567Z,12.79
2019-02-11T00:19:16.044Z,12.53
2019-02-11T00:21:47.899Z,12.86
2019-02-11T00:24:19.196Z,12.98
2019-02-11T00:26:50.927Z,12.98
2019-02-11T00:29:22.380Z,12.97
2019-02-11T00:31:54.236Z,12.74
2019-02-11T00:34:25.683Z,12.55
2019-02-11T00:36:57.576Z,12.81
2019-02-11T00:39:29.124Z,12.81
2019-02-11T00:42:00.530Z,12.87
2019-02-11T00:44:32.134Z,12.83
2019-02-11T00:47:03.630Z,12.58
2019-02-11T00:49:34.927Z,12.66
2019-02-11T00:52:06.841Z,12.66
2019-02-11T00:54:38.536Z,12.73
2019-02-11T00:57:09.969Z,12.72
2019-02-11T00:59:41.562Z,12.72
2019-02-11T01:02:12.907Z,12.83
2019-02-11T01:04:44.381Z,12.87
2019-02-11T01:07:15.520Z,12.66
2019-02-11T01:09:48.303Z,12.66
2019-02-11T01:12:19.943Z,12.55
2019-02-11T01:14:51.455Z,12.74
2019-02-11T01:17:22.732Z,12.74
2019-02-11T01:19:54.395Z,12.79
2019-02-11T01:22:27.164Z,12.63
2019-02-11T01:24:58.624Z,12.63
2019-02-11T01:27:30.010Z,12.82
2019-02-11T01:30:01.715Z,12.73
2019-02-11T01:32:32.861Z,12.73
2019-02-11T01:35:04.350Z,12.78
2019-02-11T01:37:35.961Z,12.78
2019-02-11T01:40:09.872Z,12.74
2019-02-11T01:42:41.220Z,12.74
2019-02-11T01:45:14.254Z,12.85
2019-02-11T01:47:45.743Z,13.00
2019-02-11T01:50:17.408Z,13.00
2019-02-11T01:52:48.619Z,13.06
2019-02-11T01:55:19.956Z,12.96
2019-02-11T01:57:51.244Z,12.94
2019-02-11T02:00:22.734Z,13.10
2019-02-11T02:02:54.028Z,13.19
2019-02-11T02:05:25.652Z,13.31
2019-02-11T02:07:57.000Z,13.55
2019-02-11T02:10:28.420Z,14.02
2019-02-11T02:12:59.705Z,14.02
2019-02-11T02:15:30.945Z,16.66
2019-02-11T02:18:02.290Z,16.51
2019-02-11T02:20:33.539Z,16.49
2019-02-11T02:23:06.892Z,16.40
2019-02-11T02:25:38.890Z,16.58
2019-02-11T02:28:10.692Z,16.67
2019-02-11T02:30:42.155Z,16.72
2019-02-11T02:33:13.413Z,16.72
2019-02-11T02:35:44.508Z,16.69
2019-02-11T02:38:16.904Z,16.73
2019-02-11T02:40:51.628Z,16.73
2019-02-11T02:43:22.847Z,16.77
2019-02-11T02:45:53.939Z,16.77
2019-02-11T02:48:25.177Z,16.09
2019-02-11T02:50:56.184Z,16.72
2019-02-11T02:53:27.305Z,17.24
2019-02-11T02:55:58.535Z,17.24
2019-02-11T02:58:29.502Z,17.05
2019-02-11T03:01:00.551Z,16.83
2019-02-11T03:03:31.957Z,16.92
2019-02-11T03:06:03.071Z,16.92
2019-02-11T03:08:34.279Z,16.74
2019-02-11T03:11:05.342Z,16.63
2019-02-11T03:13:36.509Z,16.58
2019-02-11T03:16:07.635Z,16.58
2019-02-11T03:18:38.619Z,16.59
2019-02-11T03:21:10.256Z,16.72
2019-02-11T03:23:41.253Z,16.72
2019-02-11T03:26:12.212Z,17.03
2019-02-11T03:28:43.250Z,16.75
2019-02-11T03:31:14.414Z,16.84
2019-02-11T03:33:45.488Z,16.88
2019-02-11T03:36:16.561Z,17.19
2019-02-11T03:38:49.184Z,17.26
2019-02-11T03:41:20.667Z,17.21
2019-02-11T03:43:51.962Z,17.21
2019-02-11T03:46:23.277Z,17.18
2019-02-11T03:49:01.604Z,17.06
2019-02-11T03:51:32.666Z,17.32
2019-02-11T03:54:09.566Z,17.32
2019-02-11T03:56:40.634Z,17.36
2019-02-11T03:59:11.635Z,17.27
2019-02-11T04:01:47.038Z,17.27
2019-02-11T04:04:20.058Z,17.10
2019-02-11T04:06:53.034Z,17.04
2019-02-11T04:09:26.019Z,17.04
2019-02-11T04:11:57.121Z,17.05
2019-02-11T04:14:28.071Z,17.08
2019-02-11T04:16:59.025Z,17.12
2019-02-11T04:19:30.261Z,17.12
2019-02-11T04:22:08.891Z,17.40
2019-02-11T04:24:40.246Z,17.55
2019-02-11T04:27:11.698Z,17.55
2019-02-11T04:29:43.138Z,17.57
2019-02-11T04:32:14.591Z,17.57
2019-02-11T04:34:46.000Z,17.43
2019-02-11T04:37:17.667Z,17.62
2019-02-11T04:39:49.052Z,17.66
2019-02-11T04:42:20.560Z,17.60
2019-02-11T04:44:52.921Z,17.67
2019-02-11T04:47:27.539Z,17.65
2019-02-11T04:49:58.838Z,17.65
2019-02-11T04:52:30.155Z,17.30
2019-02-11T04:55:01.207Z,17.51
2019-02-11T04:57:32.663Z,17.52
2019-02-11T05:00:04.286Z,17.19
2019-02-11T05:02:36.044Z,17.19
2019-02-11T05:05:08.014Z,17.64
2019-02-11T05:07:39.390Z,17.64
2019-02-11T05:10:12.079Z,17.72
2019-02-11T05:12:43.605Z,17.67
2019-02-11T05:15:14.717Z,17.56
2019-02-11T05:17:46.385Z,17.81
2019-02-11T05:20:17.849Z,17.57
2019-02-11T05:22:49.279Z,17.83
2019-02-11T05:25:20.457Z,17.79
2019-02-11T05:27:52.169Z,17.91
2019-02-11T05:30:23.463Z,18.09
2019-02-11T05:32:54.720Z,18.31
2019-02-11T05:35:26.049Z,18.31
2019-02-11T05:37:57.367Z,18.01
2019-02-11T05:40:28.548Z,18.13
2019-02-11T05:42:59.905Z,18.12
2019-02-11T05:45:30.907Z,17.91
2019-02-11T05:48:02.362Z,17.85
2019-02-11T05:50:33.529Z,17.85
2019-02-11T05:53:04.964Z,18.21
2019-02-11T05:55:36.594Z,18.14
2019-02-11T05:58:08.144Z,18.16
2019-02-11T06:00:39.467Z,18.40
2019-02-11T06:03:11.454Z,18.40
2019-02-11T06:05:43.348Z,18.34
2019-02-11T06:08:14.609Z,18.38
2019-02-11T06:10:46.317Z,18.38
2019-02-11T06:13:17.819Z,18.56
2019-02-11T06:15:49.424Z,18.48
2019-02-11T06:18:20.573Z,18.70
2019-02-11T06:20:52.221Z,18.70
2019-02-11T06:23:23.503Z,18.67
2019-02-11T06:25:55.351Z,18.72
2019-02-11T06:28:27.095Z,18.78
2019-02-11T06:30:58.304Z,18.78
2019-02-11T06:33:30.180Z,18.98
2019-02-11T06:36:11.448Z,18.98
2019-02-11T06:38:35.069Z,18.93
2019-02-11T06:41:06.210Z,18.93
2019-02-11T06:43:38.796Z,19.36
2019-02-11T06:46:10.097Z,19.30
2019-02-11T06:48:41.683Z,19.30
2019-02-11T06:51:13.311Z,19.30
2019-02-11T06:53:45.044Z,19.38
2019-02-11T06:56:16.337Z,19.72
2019-02-11T06:58:48.152Z,19.72
2019-02-11T07:01:19.595Z,19.69
2019-02-11T07:03:51.473Z,19.51
2019-02-11T07:06:22.920Z,19.77
2019-02-11T07:08:54.120Z,19.77
2019-02-11T07:11:25.618Z,19.72
2019-02-11T07:13:57.043Z,19.85
2019-02-11T07:16:28.466Z,19.53
2019-02-11T07:19:00.088Z,19.51
2019-02-11T07:21:31.471Z,19.51
2019-02-11T07:24:02.960Z,19.92
2019-02-11T07:26:34.263Z,19.64
2019-02-11T07:29:05.632Z,19.64
2019-02-11T07:31:37.118Z,19.65
2019-02-11T07:34:08.391Z,19.52
2019-02-11T07:36:39.825Z,19.57
2019-02-11T07:39:11.778Z,19.57
2019-02-11T07:42:02.375Z,19.74
2019-02-11T07:44:39.052Z,20.04
2019-02-11T07:47:10.600Z,20.04
2019-02-11T07:49:42.125Z,19.77
2019-02-11T07:52:13.909Z,19.99
2019-02-11T07:54:45.439Z,19.99
2019-02-11T07:57:18.446Z,19.86
2019-02-11T07:59:49.575Z,20.11
2019-02-11T08:02:21.226Z,20.11
2019-02-11T08:04:52.707Z,20.03
2019-02-11T08:07:24.059Z,19.97
2019-02-11T08:09:55.326Z,19.97
2019-02-11T08:12:26.800Z,19.88
2019-02-11T08:14:58.035Z,20.22
2019-02-11T08:17:29.707Z,20.18
2019-02-11T08:20:01.149Z,20.18
2019-02-11T08:22:32.737Z,20.15
2019-02-11T08:25:05.564Z,20.22
2019-02-11T08:27:37.036Z,20.72
2019-02-11T08:30:08.790Z,20.63
2019-02-11T08:32:39.969Z,20.63
2019-02-11T08:35:13.625Z,20.32
2019-02-11T08:37:46.502Z,20.42
2019-02-11T08:40:18.327Z,20.14
2019-02-11T08:42:50.607Z,20.24
2019-02-11T08:45:22.760Z,20.64
2019-02-11T08:47:56.432Z,20.27
2019-02-11T08:50:28.184Z,20.27
2019-02-11T08:52:59.692Z,20.39
2019-02-11T08:55:31.199Z,20.74
2019-02-11T08:58:02.752Z,20.81
2019-02-11T09:00:34.151Z,20.31
2019-02-11T09:03:05.471Z,20.54
2019-02-11T09:05:36.623Z,20.54
2019-02-11T09:08:08.372Z,20.51
2019-02-11T09:10:39.884Z,20.36
2019-02-11T09:13:11.442Z,20.67
2019-02-11T09:15:42.630Z,20.67
2019-02-11T09:18:14.354Z,20.55
2019-02-11T09:20:45.889Z,20.52
2019-02-11T09:23:17.825Z,20.52
2019-02-11T09:25:50.133Z,20.45
2019-02-11T09:28:21.345Z,20.35
2019-02-11T09:30:52.558Z,20.59
2019-02-11T09:33:23.536Z,20.59
2019-02-11T09:35:54.626Z,20.42
2019-02-11T09:38:26.396Z,20.39
2019-02-11T09:40:57.529Z,20.39
2019-02-11T09:43:28.713Z,20.51
2019-02-11T09:46:03.845Z,20.60
2019-02-11T09:48:35.608Z,20.60
2019-02-11T09:51:07.385Z,20.53
2019-02-11T09:53:39.490Z,20.55
2019-02-11T09:56:13.155Z,20.92
2019-02-11T09:58:44.108Z,20.85
2019-02-11T10:01:15.224Z,20.85
2019-02-11T10:03:46.423Z,20.71
2019-02-11T10:06:17.394Z,20.61
2019-02-11T10:08:48.467Z,20.61
2019-02-11T10:11:19.534Z,20.52
2019-02-11T10:13:50.594Z,20.43
2019-02-11T10:16:22.330Z,20.43
2019-02-11T10:18:53.737Z,20.42
2019-02-11T10:21:24.950Z,20.42
2019-02-11T10:23:57.038Z,20.31
2019-02-11T10:26:28.694Z,20.28
2019-02-11T10:28:59.827Z,20.32
2019-02-11T10:31:31.043Z,20.32
2019-02-11T10:34:02.505Z,20.30
2019-02-11T10:36:33.741Z,20.27
2019-02-11T10:39:06.223Z,20.26
2019-02-11T10:41:39.014Z,20.29
2019-02-11T10:44:10.643Z,20.29
2019-02-11T10:46:46.757Z,20.30
2019-02-11T10:49:17.875Z,20.30
2019-02-11T10:51:49.295Z,20.27
2019-02-11T10:54:20.472Z,20.24
2019-02-11T10:56:52.159Z,20.22
2019-02-11T10:59:24.407Z,20.22
2019-02-11T11:01:55.419Z,20.14
2019-02-11T11:04:26.719Z,20.19
2019-02-11T11:06:58.539Z,20.15
2019-02-11T11:09:31.335Z,20.10
2019-02-11T11:12:02.568Z,20.07
2019-02-11T11:14:35.043Z,20.13
2019-02-11T11:17:08.229Z,20.13
2019-02-11T11:19:41.558Z,20.14
2019-02-11T11:22:12.798Z,20.13
2019-02-11T11:24:43.995Z,20.13
2019-02-11T11:27:15.261Z,20.13
2019-02-11T11:29:46.393Z,20.19
2019-02-11T11:32:19.494Z,20.13
2019-02-11T11:34:50.518Z,20.06
2019-02-11T11:37:21.675Z,20.02
2019-02-11T11:39:52.751Z,20.00
2019-02-11T11:42:24.000Z,19.94
2019-02-11T11:44:55.201Z,19.91
2019-02-11T11:47:28.133Z,19.91
2019-02-11T11:49:59.322Z,19.87
2019-02-11T11:52:30.697Z,19.83
2019-02-11T11:55:02.085Z,19.83
2019-02-11T11:57:34.704Z,19.76
2019-02-11T12:00:12.277Z,19.77
2019-02-11T12:02:59.569Z,19.77
2019-02-11T12:05:17.668Z,19.75
2019-02-11T12:07:48.927Z,19.72
2019-02-11T12:10:20.322Z,19.72
2019-02-11T12:12:51.785Z,19.75
2019-02-11T12:15:24.447Z,19.78
2019-02-11T12:17:55.860Z,19.78
2019-02-11T12:20:27.425Z,19.72
2019-02-11T12:22:58.818Z,19.79
2019-02-11T12:25:30.548Z,19.66
2019-02-11T12:28:02.393Z,19.66
2019-02-11T12:30:34.236Z,19.81
2019-02-11T12:33:05.670Z,19.74
2019-02-11T12:35:37.162Z,19.74
2019-02-11T12:38:09.000Z,19.78
2019-02-11T12:40:40.717Z,19.78
2019-02-11T12:43:11.918Z,19.74
2019-02-11T12:45:43.696Z,19.70
2019-02-11T12:48:16.481Z,19.70
2019-02-11T12:50:49.355Z,19.58
2019-02-11T12:53:20.483Z,19.64
2019-02-11T12:55:51.731Z,19.64
2019-02-11T12:58:22.946Z,19.73
2019-02-11T13:00:55.382Z,19.68
2019-02-11T13:03:27.003Z,19.68
2019-02-11T13:05:59.323Z,19.72
2019-02-11T13:08:30.419Z,19.68
2019-02-11T13:11:01.742Z,19.68
2019-02-11T13:13:33.099Z,19.63
2019-02-11T13:16:05.323Z,19.69
2019-02-11T13:18:39.450Z,19.60
2019-02-11T13:21:09.374Z,19.60
2019-02-11T13:23:40.845Z,18.91
2019-02-11T13:26:13.500Z,18.91
2019-02-11T13:28:45.016Z,18.81
2019-02-11T13:31:16.864Z,18.84
2019-02-11T13:33:48.328Z,18.82
2019-02-11T13:36:19.747Z,18.73
2019-02-11T13:38:51.392Z,18.61
2019-02-11T13:41:22.868Z,18.57
2019-02-11T13:43:54.411Z,18.48
2019-02-11T13:46:25.933Z,18.34
2019-02-11T13:48:57.387Z,18.34
2019-02-11T13:51:29.238Z,18.30
2019-02-11T13:54:00.852Z,18.25
2019-02-11T13:56:33.117Z,18.25
2019-02-11T13:59:05.172Z,18.32
2019-02-11T14:01:37.601Z,18.33
2019-02-11T14:04:11.267Z,18.33
2019-02-11T14:06:43.017Z,18.35
2019-02-11T14:09:15.259Z,18.34
2019-02-11T14:11:47.030Z,18.31
2019-02-11T14:14:20.009Z,18.31
2019-02-11T14:16:51.647Z,18.26
2019-02-11T14:19:23.161Z,18.26
2019-02-11T14:21:54.498Z,18.25
2019-02-11T14:24:26.413Z,18.24
2019-02-11T14:26:57.777Z,18.40
2019-02-11T14:29:29.431Z,18.29
2019-02-11T14:32:01.579Z,18.29
2019-02-11T14:34:33.662Z,18.26
2019-02-11T14:37:05.380Z,18.27
2019-02-11T14:39:36.905Z,18.27
2019-02-11T14:42:08.713Z,18.28
2019-02-11T14:44:40.154Z,18.28
2019-02-11T14:47:11.737Z,18.26
2019-02-11T14:49:43.021Z,18.21
2019-02-11T14:52:14.577Z,18.16
2019-02-11T14:54:47.750Z,18.15
2019-02-11T14:57:20.629Z,18.14
2019-02-11T14:59:51.880Z,17.93
2019-02-11T15:02:23.593Z,17.94
2019-02-11T15:04:55.412Z,19.01
2019-02-11T15:07:27.256Z,18.14
2019-02-11T15:09:58.908Z,18.14
2019-02-11T15:12:30.577Z,18.00
2019-02-11T15:15:01.785Z,17.97
2019-02-11T15:17:33.247Z,17.91
2019-02-11T15:20:04.524Z,17.89
2019-02-11T15:22:36.241Z,17.89
2019-02-11T15:25:08.889Z,18.06
2019-02-11T15:27:40.506Z,18.04
2019-02-11T15:30:15.969Z,18.04
2019-02-11T15:32:47.968Z,18.06
2019-02-11T15:35:20.006Z,18.15
2019-02-11T15:37:51.271Z,18.15
2019-02-11T15:40:23.551Z,18.06
2019-02-11T15:42:55.132Z,18.06
2019-02-11T15:45:28.262Z,18.06
2019-02-11T15:48:00.755Z,17.94
2019-02-11T15:50:32.426Z,17.88
2019-02-11T15:53:04.083Z,17.81
2019-02-11T15:55:35.674Z,17.77
2019-02-11T15:58:07.232Z,17.77
2019-02-11T16:00:39.678Z,17.73
2019-02-11T16:03:11.184Z,17.71
2019-02-11T16:05:49.516Z,17.68
2019-02-11T16:08:17.735Z,17.68
2019-02-11T16:10:49.493Z,17.65
2019-02-11T16:13:20.799Z,17.43
2019-02-11T16:15:52.755Z,17.43
2019-02-11T16:18:24.062Z,17.49
2019-02-11T16:20:55.713Z,17.52
2019-02-11T16:23:27.583Z,17.41
2019-02-11T16:25:59.514Z,17.37
2019-02-11T16:28:31.009Z,17.43
2019-02-11T16:31:02.449Z,17.42
2019-02-11T16:33:33.931Z,17.49
2019-02-11T16:36:05.767Z,17.45
2019-02-11T16:38:37.166Z,17.51
2019-02-11T16:41:08.677Z,17.53
2019-02-11T16:43:40.125Z,17.53
2019-02-11T16:46:11.428Z,17.39
2019-02-11T16:48:42.908Z,17.39
2019-02-11T16:51:14.633Z,17.48
2019-02-11T16:53:45.994Z,17.48
2019-02-11T16:56:17.656Z,17.34
2019-02-11T16:58:49.203Z,17.43
2019-02-11T17:01:20.687Z,17.43
2019-02-11T17:03:52.027Z,17.65
2019-02-11T17:06:23.442Z,17.74
2019-02-11T17:08:55.982Z,17.74
2019-02-11T17:11:27.113Z,17.54
2019-02-11T17:13:58.461Z,17.50
2019-02-11T17:16:32.674Z,17.50
2019-02-11T17:19:09.436Z,17.64
2019-02-11T17:21:37.414Z,17.64
2019-02-11T17:24:08.808Z,17.51
2019-02-11T17:26:40.397Z,17.51
2019-02-11T17:29:12.020Z,17.48
2019-02-11T17:31:43.515Z,17.48
2019-02-11T17:34:15.105Z,17.38
2019-02-11T17:36:47.751Z,17.38
2019-02-11T17:39:19.152Z,17.48
2019-02-11T17:41:50.465Z,17.41
2019-02-11T17:44:22.292Z,17.41
2019-02-11T17:46:53.656Z,17.21
2019-02-11T17:49:25.116Z,17.23
2019-02-11T17:51:56.794Z,17.23
2019-02-11T17:54:28.330Z,17.23
2019-02-11T17:56:59.890Z,17.12
2019-02-11T17:59:31.356Z,17.12
2019-02-11T18:02:06.287Z,16.96
2019-02-11T18:04:37.999Z,16.96
2019-02-11T18:07:09.696Z,16.99
2019-02-11T18:09:44.527Z,17.02
2019-02-11T18:12:16.649Z,16.98
2019-02-11T18:14:48.139Z,16.99
2019-02-11T18:17:19.803Z,16.98
2019-02-11T18:19:51.454Z,16.98
2019-02-11T18:22:24.211Z,17.04
2019-02-11T18:24:55.697Z,17.04
2019-02-11T18:27:27.327Z,17.16
2019-02-11T18:29:58.881Z,17.16
2019-02-11T18:32:30.387Z,17.18
2019-02-11T18:35:01.910Z,17.09
2019-02-11T18:37:33.333Z,17.06
2019-02-11T18:40:04.832Z,17.06
2019-02-11T18:42:36.445Z,17.09
2019-02-11T18:45:09.879Z,17.09
2019-02-11T18:47:41.420Z,17.09
2019-02-11T18:50:15.513Z,17.00
2019-02-11T18:52:46.956Z,17.00
2019-02-11T18:55:18.698Z,17.03
2019-02-11T18:57:50.410Z,17.05
2019-02-11T19:00:21.935Z,16.90
2019-02-11T19:02:54.085Z,17.13
2019-02-11T19:05:25.440Z,17.07
2019-02-11T19:07:57.473Z,17.07
2019-02-11T19:10:28.991Z,17.03
2019-02-11T19:13:00.506Z,17.03
2019-02-11T19:15:32.088Z,17.04
2019-02-11T19:18:03.565Z,16.74
2019-02-11T19:20:34.888Z,16.83
2019-02-11T19:23:06.393Z,16.83
2019-02-11T19:25:37.743Z,16.84
2019-02-11T19:28:09.179Z,16.87
2019-02-11T19:30:40.578Z,16.90
2019-02-11T19:33:12.184Z,16.90
2019-02-11T19:35:43.569Z,16.79
2019-02-11T19:38:15.080Z,16.92
2019-02-11T19:40:46.432Z,16.89
2019-02-11T19:43:18.082Z,16.95
2019-02-11T19:45:49.398Z,16.95
2019-02-11T19:48:21.090Z,16.96
2019-02-11T19:50:52.572Z,16.87
2019-02-11T19:53:24.242Z,16.87
2019-02-11T19:55:55.551Z,16.85
2019-02-11T19:58:27.149Z,16.85
2019-02-11T20:00:58.572Z,16.66
2019-02-11T20:03:30.270Z,16.78
2019-02-11T20:06:03.577Z,16.74
2019-02-11T20:08:35.072Z,16.74
2019-02-11T20:11:06.856Z,16.54
2019-02-11T20:13:38.452Z,16.69
2019-02-11T20:16:09.817Z,16.69
2019-02-11T20:18:42.131Z,16.67
2019-02-11T20:21:13.562Z,16.67
2019-02-11T20:23:45.076Z,16.63
2019-02-11T20:26:16.367Z,16.55
2019-02-11T20:28:48.167Z,16.55
2019-02-11T20:31:19.492Z,16.59
2019-02-11T20:33:50.835Z,16.64
2019-02-11T20:36:22.356Z,16.64
2019-02-11T20:38:53.958Z,16.37
2019-02-11T20:41:25.434Z,16.37
2019-02-11T20:43:56.965Z,16.49
2019-02-11T20:46:28.951Z,16.53
2019-02-11T20:49:00.406Z,16.56
2019-02-11T20:51:31.765Z,16.56
2019-02-11T20:54:03.222Z,16.58
2019-02-11T20:56:38.124Z,16.50
2019-02-11T20:59:09.744Z,16.54
2019-02-11T21:01:41.366Z,16.54
2019-02-11T21:04:13.849Z,16.61
2019-02-11T21:06:45.350Z,16.44
2019-02-11T21:09:16.896Z,16.38
2019-02-11T21:11:49.471Z,16.38
2019-02-11T21:14:20.722Z,16.38
2019-02-11T21:16:52.079Z,16.39
2019-02-11T21:19:23.358Z,16.41
2019-02-11T21:21:56.547Z,16.55
2019-02-11T21:24:27.968Z,16.55
2019-02-11T21:27:00.384Z,16.55
2019-02-11T21:29:31.960Z,16.52
2019-02-11T21:32:03.518Z,16.39
2019-02-11T21:34:34.689Z,16.42
2019-02-11T21:37:06.547Z,16.26
2019-02-11T21:39:37.847Z,16.31
2019-02-11T21:42:09.271Z,16.31
2019-02-11T21:44:40.775Z,16.43
2019-02-11T21:47:12.210Z,16.32
2019-02-11T21:49:43.563Z,16.38
2019-02-11T21:52:15.037Z,16.38
2019-02-11T21:54:46.260Z,16.37
2019-02-11T21:57:18.031Z,16.36
2019-02-11T21:59:51.334Z,16.26
2019-02-11T22:02:23.047Z,16.26
2019-02-11T22:04:54.777Z,16.40
2019-02-11T22:07:26.317Z,16.43
2019-02-11T22:09:57.842Z,16.49
2019-02-11T22:12:29.161Z,16.49
2019-02-11T22:15:01.252Z,16.36
2019-02-11T22:17:32.590Z,16.44
2019-02-11T22:20:04.989Z,16.44
2019-02-11T22:22:36.752Z,16.47
2019-02-11T22:25:08.935Z,16.47
2019-02-11T22:27:40.603Z,16.45
2019-02-11T22:30:17.334Z,16.45
2019-02-11T22:32:49.795Z,16.48
2019-02-11T22:35:21.959Z,16.43
2019-02-11T22:37:53.722Z,16.43
2019-02-11T22:40:24.964Z,16.37
2019-02-11T22:42:56.453Z,16.35
2019-02-11T22:45:28.322Z,16.35
2019-02-11T22:48:00.653Z,16.27
2019-02-11T22:50:32.029Z,16.30
2019-02-11T22:53:03.395Z,16.27
2019-02-11T22:55:34.963Z,16.27
2019-02-11T22:58:07.771Z,16.28
2019-02-11T23:00:47.702Z,16.18
2019-02-11T23:03:20.422Z,16.14
2019-02-11T23:05:52.707Z,16.02
2019-02-11T23:08:24.074Z,16.06
2019-02-11T23:10:55.450Z,16.18
2019-02-11T23:13:27.010Z,16.20
2019-02-11T23:15:58.829Z,16.20
2019-02-11T23:18:30.283Z,16.21
2019-02-11T23:21:01.582Z,16.11
2019-02-11T23:23:32.966Z,16.01
2019-02-11T23:26:04.337Z,16.09
2019-02-11T23:28:36.022Z,16.09
2019-02-11T23:31:07.653Z,15.97
2019-02-11T23:33:39.099Z,15.90
2019-02-11T23:36:10.783Z,16.14
2019-02-11T23:38:42.066Z,16.10
2019-02-11T23:41:13.395Z,15.92
2019-02-11T23:43:44.949Z,15.92
2019-02-11T23:46:19.357Z,15.98
2019-02-11T23:48:50.800Z,15.96
2019-02-11T23:51:22.440Z,15.88
2019-02-11T23:53:53.901Z,15.88
2019-02-11T23:56:27.070Z,15.91
2019-02-11T23:58:58.357Z,15.81
